CDT,Max TemperatureF,Mean TemperatureF,Min TemperatureF,Max Dew PointF,MeanDew PointF,Min DewpointF,Max Humidity, Mean Humidity, Min Humidity, Max Sea Level PressureIn, Mean Sea Level PressureIn, Min Sea Level PressureIn, Max VisibilityMiles, Mean VisibilityMiles, Min VisibilityMiles, Max Wind SpeedMPH, Mean Wind SpeedMPH, Max Gust SpeedMPH,PrecipitationIn, CloudCover, Events, WindDirDegrees
2011-10-1,73,54,35,39,35,32,93,58,22,30.31,30.24,30.18,10,10,10,15,3,18,0.00,0,,155
2011-10-2,80,60,39,43,37,34,87,56,18,30.23,30.18,30.10,10,10,7,15,6,20,0.00,0,,168
2011-10-3,84,62,41,45,40,36,81,54,19,30.17,30.13,30.07,10,10,10,20,7,26,0.03,0,,146
2011-10-4,91,73,55,46,44,41,67,41,17,30.11,30.06,30.00,10,10,10,17,9,22,0.00,0,,173
2011-10-5,84,67,50,46,40,34,82,44,17,30.07,30.02,29.95,10,10,10,23,10,33,0.00,0,,164
2011-10-6,82,68,55,50,43,37,63,41,28,29.98,29.91,29.82,10,10,7,33,14,41,0.00,3,Rain,161
2011-10-7,82,73,64,61,54,45,59,50,43,29.95,29.88,29.85,10,10,10,30,20,38,0.00,4,,175
2011-10-8,80,72,64,59,54,50,68,54,39,30.06,30.00,29.95,10,10,2,20,12,25,0.00,7,,175
2011-10-9,80,68,55,61,56,46,100,73,30,30.13,30.08,29.99,10,9,4,28,7,39,0.00,5,Rain,147
2011-10-10,69,60,51,59,52,46,100,76,46,30.07,30.00,29.93,10,10,2,13,7,17,0.31,3,Rain,195
2011-10-11,77,60,44,57,50,45,100,74,32,29.94,29.84,29.73,10,9,1,21,7,28,0.00,2,Rain,161
2011-10-12,69,60,51,57,53,45,100,78,49,29.80,29.73,29.69,10,10,2,20,4,30,0.17,5,Rain,333
2011-10-13,73,62,50,45,38,32,71,48,22,29.87,29.83,29.78,10,10,7,21,12,29,0.00,0,,315
2011-10-14,60,53,46,36,34,28,66,49,31,30.01,29.95,29.86,10,10,4,21,12,29,0.00,4,,309
2011-10-15,73,55,37,43,33,28,81,52,25,30.06,29.98,29.77,10,10,10,20,7,29,0.00,0,,239
2011-10-16,62,52,42,45,38,32,87,58,32,30.09,29.97,29.70,10,10,10,21,10,29,0.00,0,,345
2011-10-17,50,42,35,43,39,32,93,81,70,30.07,30.03,29.99,10,10,5,16,4,22,0.19,6,Rain,329
2011-10-18,53,45,37,39,32,21,81,61,30,30.11,30.06,30.00,10,10,10,29,14,34,0.00,1,,336
2011-10-19,48,40,32,28,26,23,87,66,37,30.15,30.10,30.07,10,10,10,22,11,29,0.00,0,,346
2011-10-20,51,42,32,32,31,28,93,71,44,30.09,30.06,30.02,10,10,10,13,8,16,0.00,2,,323
2011-10-21,69,50,30,37,32,27,93,62,25,30.09,30.06,30.02,10,10,10,14,4,,0.00,0,,207
2011-10-22,59,48,37,50,42,34,94,78,51,30.12,30.10,30.04,10,10,5,8,3,,0.06,4,Rain,59
2011-10-23,77,55,33,48,39,34,100,66,25,30.02,29.95,29.87,10,7,0,16,4,22,0.00,2,Fog,264
2011-10-24,77,56,35,43,37,34,93,58,21,30.09,29.99,29.79,10,10,10,18,5,29,0.00,1,,180
2011-10-25,69,60,50,48,44,41,82,56,38,29.92,29.74,29.67,10,10,10,25,12,37,0.00,0,,239
2011-10-26,51,46,42,41,36,34,81,69,54,30.14,30.09,30.04,10,10,10,20,12,25,0.00,4,,346
2011-10-27,55,44,32,34,28,21,93,59,28,30.17,30.13,30.09,10,10,7,13,6,20,0.00,1,,295
2011-10-28,57,44,32,32,25,16,81,53,21,30.21,30.16,30.12,10,10,10,22,9,29,0.00,0,,305
2011-10-29,64,45,26,32,27,21,87,54,21,30.14,29.97,29.79,10,10,10,20,6,26,0.00,0,,170
2011-10-30,60,50,41,36,29,21,76,46,22,30.06,29.99,29.82,10,10,10,28,14,37,0.00,2,,314
2011-10-31,68,46,24,32,26,19,86,55,23,30.09,30.00,29.88,10,10,10,17,6,21,0.00,0,,168